Lulu Pass Weather Station

This weather station provides temperature, relative humidity (RH), wind speed, gust or max wind speed, and wind direction at 10014ft near Lulu Pass at the head of Fisher Creek. This data can be used with temperature and precipitation data from the Fisher Creek SNOTEL site.

This weather station was purchased by the Friends of the Avalanche Center.

If the data has not been updated recently you can view it directly on datagarrison.com

Elevation
10014ft
Jump to table bottom
Date Time Temperature
deg F
RH, % Wind Speed Wind Gust Wind Direction
01/26/20 12:00 19.3 98 10 15 NW - 316
01/26/20 11:00 20.0 98 7 13 NW - 302
01/26/20 10:00 20.3 97 5 10 NW - 293
01/26/20 09:00 17.8 97 5 11 W - 284
01/26/20 08:00 17.3 96 5 12 W - 260
01/26/20 07:00 16.1 96 6 14 W - 274
01/26/20 06:00 15.4 96 8 17 W - 261
01/26/20 05:00 14.8 96 9 20 SW - 240
01/26/20 04:00 14.6 96 8 17 SW - 241
01/26/20 03:00 15.3 96 5 12 W - 272
01/26/20 02:00 16.0 96 7 18 W - 277
01/26/20 01:00 16.3 96 7 20 W - 268
01/26/20 00:00 16.0 96 5 10 NW - 295
01/25/20 23:00 16.0 96 5 11 W - 278
01/25/20 22:00 15.9 96 6 13 W - 257
01/25/20 21:00 15.6 96 6 15 SW - 244
01/25/20 20:00 15.4 96 7 15 W - 291
01/25/20 19:00 14.9 96 7 15 NW - 305
01/25/20 18:00 14.9 96 7 16 W - 289
01/25/20 17:00 14.6 96 10 23 SW - 237
01/25/20 16:00 14.8 96 10 20 SW - 234
01/25/20 15:00 15.6 96 11 25 SW - 236
01/25/20 14:00 15.5 96 9 23 W - 248
01/25/20 13:00 15.9 96 10 25 SW - 241
01/25/20 12:00 18.0 96 7 17 W - 256
01/25/20 11:00 16.5 96 7 15 W - 251
01/25/20 10:00 14.4 96 6 14 W - 263
01/25/20 09:00 14.0 95 9 16 NW - 293
01/25/20 08:00 13.6 95 8 16 NW - 302
01/25/20 07:00 13.7 95 7 17 W - 279
01/25/20 06:00 14.2 96 7 15 W - 284
01/25/20 05:00 14.9 96 10 18 W - 292
01/25/20 04:00 16.2 96 6 16 W - 267
01/25/20 03:00 17.2 97 6 15 SW - 247
01/25/20 02:00 17.8 97 8 18 SW - 230
01/25/20 01:00 18.2 97 3 9 W - 248
01/25/20 00:00 18.3 97 4 9 W - 257
01/24/20 23:00 18.7 97 4 7 W - 272
01/24/20 22:00 18.8 97 3 10 W - 265
01/24/20 21:00 19.4 97 3 7 W - 257
01/24/20 20:00 19.5 97 3 6 SW - 246
01/24/20 19:00 19.6 97 3 7 W - 258
01/24/20 18:00 19.8 97 4 10 SW - 239
01/24/20 17:00 20.1 97 3 7 SW - 237
01/24/20 16:00 21.0 97 3 8 SW - 234
01/24/20 15:00 21.0 97 3 8 SW - 246
01/24/20 14:00 21.4 97 3 8 SW - 226
01/24/20 13:00 23.8 98 3 6 SW - 226
01/24/20 12:00 22.1 97 4 8 SW - 243
01/24/20 11:00 21.8 97 4 8 SW - 247